createdAt,value
2023-01-10T00:02:11.365Z,7.20
2023-01-10T00:04:40.994Z,7.10
2023-01-10T00:07:09.220Z,7.20
2023-01-10T00:09:37.386Z,7.20
2023-01-10T00:12:23.870Z,7.20
2023-01-10T00:14:52.617Z,7.10
2023-01-10T00:17:21.806Z,7.20
2023-01-10T00:19:51.390Z,7.20
2023-01-10T00:22:25.075Z,7.10
2023-01-10T00:24:53.654Z,7.10
2023-01-10T00:27:23.445Z,7.10
2023-01-10T00:29:53.346Z,7.20
2023-01-10T00:32:22.271Z,7.20
2023-01-10T00:34:51.887Z,7.20
2023-01-10T00:37:20.242Z,7.20
2023-01-10T00:39:48.489Z,7.40
2023-01-10T00:42:34.483Z,7.30
2023-01-10T00:45:02.716Z,7.20
2023-01-10T00:47:30.909Z,7.20
2023-01-10T00:50:00.504Z,7.20
2023-01-10T00:52:28.748Z,7.20
2023-01-10T00:54:56.962Z,7.20
2023-01-10T00:57:25.225Z,7.20
2023-01-10T00:59:53.484Z,7.10
2023-01-10T01:02:21.763Z,7.00
2023-01-10T01:04:50.013Z,7.00
2023-01-10T01:07:19.604Z,7.00
2023-01-10T01:10:05.559Z,7.00
2023-01-10T01:12:33.785Z,7.00
2023-01-10T01:15:02.069Z,7.00
2023-01-10T01:17:30.245Z,7.00
2023-01-10T01:19:58.419Z,6.90
2023-01-10T01:22:27.963Z,6.90
2023-01-10T01:24:56.149Z,6.80
2023-01-10T01:27:24.486Z,6.80
2023-01-10T01:29:52.739Z,6.80
2023-01-10T01:32:21.819Z,6.80
2023-01-10T01:34:50.352Z,6.80
2023-01-10T01:37:19.574Z,6.70
2023-01-10T01:39:49.191Z,6.70
2023-01-10T01:42:26.221Z,6.70
2023-01-10T01:45:34.773Z,6.70
2023-01-10T01:48:17.317Z,6.70
2023-01-10T01:50:51.082Z,6.60
2023-01-10T01:53:25.882Z,6.60
2023-01-10T01:56:06.348Z,6.60
2023-01-10T01:58:43.205Z,6.60
2023-01-10T02:01:13.929Z,6.60
2023-01-10T02:03:46.281Z,6.60
2023-01-10T02:06:17.347Z,6.60
2023-01-10T02:08:56.065Z,6.60
2023-01-10T02:11:25.677Z,6.60
2023-01-10T02:13:55.969Z,6.60
2023-01-10T02:16:24.370Z,6.60
2023-01-10T02:18:52.659Z,6.50
2023-01-10T02:21:54.484Z,6.60
2023-01-10T02:25:13.718Z,6.50
2023-01-10T02:28:06.505Z,6.50
2023-01-10T02:31:26.461Z,6.50
2023-01-10T02:34:06.765Z,6.50
2023-01-10T02:36:48.181Z,6.40
2023-01-10T02:39:25.361Z,6.50
2023-01-10T02:42:00.986Z,6.50
2023-01-10T02:44:37.303Z,6.50
2023-01-10T02:47:08.548Z,6.50
2023-01-10T02:49:45.375Z,6.50
2023-01-10T02:52:20.707Z,6.50
2023-01-10T02:54:52.552Z,6.50
2023-01-10T02:57:50.580Z,6.60
2023-01-10T03:00:45.150Z,6.60
2023-01-10T03:03:41.315Z,6.50
2023-01-10T03:06:32.866Z,6.50
2023-01-10T03:09:12.040Z,6.50
2023-01-10T03:11:44.609Z,6.50
2023-01-10T03:14:21.288Z,6.50
2023-01-10T03:16:56.583Z,6.60
2023-01-10T03:19:30.039Z,6.60
2023-01-10T03:22:03.568Z,6.60
2023-01-10T03:24:37.886Z,6.70
2023-01-10T03:27:12.921Z,6.60
2023-01-10T03:29:49.486Z,6.60
2023-01-10T03:32:24.705Z,6.60
2023-01-10T03:34:54.694Z,6.60
2023-01-10T03:37:35.551Z,6.50
2023-01-10T03:40:14.262Z,6.50
2023-01-10T03:43:09.771Z,6.40
2023-01-10T03:45:45.941Z,6.30
2023-01-10T03:48:19.186Z,6.30
2023-01-10T03:50:48.903Z,6.40
2023-01-10T03:53:19.698Z,6.30
2023-01-10T03:55:48.076Z,6.30
2023-01-10T03:58:17.312Z,6.20
2023-01-10T04:00:45.831Z,6.10
2023-01-10T04:03:14.380Z,6.00
2023-01-10T04:05:42.828Z,6.00
2023-01-10T04:08:11.149Z,6.00
2023-01-10T04:10:41.371Z,5.90
2023-01-10T04:13:09.696Z,5.90
2023-01-10T04:15:38.032Z,5.90
2023-01-10T04:18:06.577Z,5.80
2023-01-10T04:20:34.854Z,5.80
2023-01-10T04:23:03.120Z,5.80
2023-01-10T04:25:31.635Z,5.70
2023-01-10T04:28:02.330Z,5.70
2023-01-10T04:30:30.724Z,5.80
2023-01-10T04:32:58.989Z,5.80
2023-01-10T04:35:27.309Z,5.70
2023-01-10T04:37:55.582Z,5.70
2023-01-10T04:40:23.843Z,5.80
2023-01-10T04:42:52.269Z,5.80
2023-01-10T04:45:21.979Z,5.80
2023-01-10T04:47:56.038Z,5.70
2023-01-10T04:50:24.711Z,5.80
2023-01-10T04:52:53.257Z,5.80
2023-01-10T04:55:21.621Z,5.80
2023-01-10T04:57:49.887Z,5.80
2023-01-10T05:00:19.194Z,5.80
2023-01-10T05:02:48.898Z,5.90
2023-01-10T05:05:17.668Z,5.90
2023-01-10T05:07:48.224Z,6.00
2023-01-10T05:10:17.136Z,6.00
2023-01-10T05:12:46.306Z,5.90
2023-01-10T05:15:14.932Z,6.00
2023-01-10T05:17:43.953Z,6.00
2023-01-10T05:20:14.508Z,6.00
2023-01-10T05:22:42.826Z,6.00
2023-01-10T05:25:11.457Z,6.10
2023-01-10T05:27:43.222Z,6.10
2023-01-10T05:30:14.420Z,6.20
2023-01-10T05:32:42.812Z,6.10
2023-01-10T05:35:11.302Z,6.10
2023-01-10T05:37:41.393Z,6.20
2023-01-10T05:40:12.146Z,6.10
2023-01-10T05:42:40.752Z,6.10
2023-01-10T05:45:10.771Z,6.20
2023-01-10T05:47:39.000Z,6.20
2023-01-10T05:50:08.521Z,6.20
2023-01-10T05:52:36.729Z,6.20
2023-01-10T05:55:07.430Z,6.20
2023-01-10T05:57:35.700Z,6.20
2023-01-10T06:00:06.441Z,6.10
2023-01-10T06:02:40.034Z,6.00
2023-01-10T06:05:09.516Z,6.00
2023-01-10T06:07:38.579Z,6.00
2023-01-10T06:10:09.702Z,6.00
2023-01-10T06:12:40.478Z,6.00
2023-01-10T06:15:10.744Z,6.00
2023-01-10T06:17:39.008Z,5.90
2023-01-10T06:20:08.914Z,6.00
2023-01-10T06:22:37.193Z,5.90
2023-01-10T06:25:06.351Z,5.90
2023-01-10T06:27:35.980Z,5.90
2023-01-10T06:30:05.186Z,6.00
2023-01-10T06:32:33.495Z,6.00
2023-01-10T06:35:01.744Z,6.00
2023-01-10T06:37:30.068Z,6.00
2023-01-10T06:39:58.399Z,5.90
2023-01-10T06:42:26.833Z,5.90
2023-01-10T06:44:56.540Z,5.80
2023-01-10T06:47:24.777Z,5.80
2023-01-10T06:49:53.025Z,5.80
2023-01-10T06:52:21.448Z,5.90
2023-01-10T06:54:52.981Z,5.80
2023-01-10T06:57:21.360Z,5.80
2023-01-10T06:59:49.710Z,5.90
2023-01-10T07:02:19.388Z,5.80
2023-01-10T07:04:49.899Z,5.90
2023-01-10T07:07:18.363Z,5.80
2023-01-10T07:09:46.604Z,5.80
2023-01-10T07:12:14.940Z,5.90
2023-01-10T07:14:43.180Z,5.80
2023-01-10T07:17:11.439Z,5.80
2023-01-10T07:19:41.089Z,5.80
2023-01-10T07:22:09.406Z,5.80
2023-01-10T07:24:37.787Z,5.80
2023-01-10T07:27:06.062Z,5.80
2023-01-10T07:29:34.415Z,5.80
2023-01-10T07:32:02.754Z,5.80
2023-01-10T07:34:30.988Z,5.70
2023-01-10T07:37:00.670Z,5.70
2023-01-10T07:39:28.908Z,5.70
2023-01-10T07:41:57.134Z,5.70
2023-01-10T07:44:25.503Z,5.70
2023-01-10T07:46:53.758Z,5.70
2023-01-10T07:49:22.008Z,5.70
2023-01-10T07:51:50.675Z,5.70
2023-01-10T07:54:20.616Z,5.70
2023-01-10T07:56:50.123Z,5.70
2023-01-10T07:59:18.623Z,5.70
2023-01-10T08:01:47.606Z,5.80
2023-01-10T08:04:15.894Z,5.80
2023-01-10T08:06:44.177Z,5.80
2023-01-10T08:09:12.500Z,5.90
2023-01-10T08:11:43.281Z,5.90
2023-01-10T08:14:13.313Z,5.90
2023-01-10T08:16:41.708Z,6.00
2023-01-10T08:19:12.404Z,6.00
2023-01-10T08:21:40.589Z,6.00
2023-01-10T08:24:09.261Z,6.00
2023-01-10T08:26:37.568Z,6.00
2023-01-10T08:29:07.566Z,6.10
2023-01-10T08:31:35.853Z,6.10
2023-01-10T08:34:04.198Z,6.10
2023-01-10T08:36:32.592Z,6.10
2023-01-10T08:39:00.911Z,6.10
2023-01-10T08:41:29.436Z,6.10
2023-01-10T08:43:57.875Z,6.10
2023-01-10T08:46:27.715Z,6.10
2023-01-10T08:48:56.112Z,6.20
2023-01-10T08:51:24.494Z,6.20
2023-01-10T08:53:52.705Z,6.20
2023-01-10T08:56:21.008Z,6.20
2023-01-10T08:58:49.338Z,6.30
2023-01-10T09:01:17.952Z,6.20
2023-01-10T09:03:47.664Z,6.30
2023-01-10T09:06:15.894Z,6.30
2023-01-10T09:08:44.154Z,6.30
2023-01-10T09:11:12.563Z,6.30
2023-01-10T09:13:42.195Z,6.40
2023-01-10T09:16:11.219Z,6.40
2023-01-10T09:18:39.526Z,6.40
2023-01-10T09:21:09.164Z,6.50
2023-01-10T09:23:38.437Z,6.50
2023-01-10T09:26:07.202Z,6.50
2023-01-10T09:28:35.489Z,6.50
2023-01-10T09:31:05.091Z,6.60
2023-01-10T09:33:45.932Z,6.70
2023-01-10T09:36:17.108Z,6.80
2023-01-10T09:38:45.764Z,6.80
2023-01-10T09:41:52.471Z,6.80
2023-01-10T09:44:30.757Z,6.80
2023-01-10T09:47:21.549Z,6.80
2023-01-10T09:50:05.244Z,6.80
2023-01-10T09:52:40.906Z,6.80
2023-01-10T09:55:25.099Z,6.80
2023-01-10T09:57:56.447Z,6.80
2023-01-10T10:00:37.376Z,6.80
2023-01-10T10:03:24.859Z,6.90
2023-01-10T10:06:00.862Z,6.80
2023-01-10T10:08:37.826Z,6.90
2023-01-10T10:11:35.171Z,6.90
2023-01-10T10:14:14.579Z,6.90
2023-01-10T10:17:05.906Z,6.90
2023-01-10T10:19:56.787Z,6.90
2023-01-10T10:22:43.413Z,6.90
2023-01-10T10:25:39.324Z,7.00
2023-01-10T10:28:53.492Z,7.10
2023-01-10T10:31:41.271Z,7.10
2023-01-10T10:34:22.893Z,7.10
2023-01-10T10:36:57.075Z,7.20
2023-01-10T10:39:39.504Z,7.30
2023-01-10T10:42:15.681Z,7.30
2023-01-10T10:44:53.860Z,7.40
2023-01-10T10:47:24.940Z,7.30
2023-01-10T10:50:00.590Z,7.30
2023-01-10T10:52:34.383Z,7.20
2023-01-10T10:55:06.764Z,7.30
2023-01-10T10:57:51.582Z,7.30
2023-01-10T11:00:25.494Z,7.40
2023-01-10T11:03:02.605Z,7.40
2023-01-10T11:05:37.992Z,7.40
2023-01-10T11:08:11.041Z,7.50
2023-01-10T11:10:40.440Z,7.50
2023-01-10T11:13:21.978Z,7.50
2023-01-10T11:15:52.020Z,7.60
2023-01-10T11:18:26.982Z,7.70
2023-01-10T11:21:00.140Z,7.60
2023-01-10T11:23:50.999Z,7.60
2023-01-10T11:26:27.625Z,7.50
2023-01-10T11:29:10.176Z,7.50
2023-01-10T11:31:39.398Z,7.30
2023-01-10T11:34:22.865Z,7.30
2023-01-10T11:36:57.934Z,7.20
2023-01-10T11:39:28.073Z,7.30
2023-01-10T11:41:59.394Z,7.30
2023-01-10T11:44:30.989Z,7.30
2023-01-10T11:47:05.028Z,7.20
2023-01-10T11:49:39.870Z,7.20
2023-01-10T11:52:20.995Z,7.20
2023-01-10T11:54:49.842Z,7.30
2023-01-10T11:57:23.334Z,7.30
2023-01-10T11:59:57.034Z,7.30
2023-01-10T12:02:29.505Z,7.30
2023-01-10T12:05:02.233Z,7.30
2023-01-10T12:07:30.687Z,7.30
2023-01-10T12:10:01.254Z,7.30
2023-01-10T12:12:32.447Z,7.30
2023-01-10T12:15:24.782Z,7.30
2023-01-10T12:17:55.249Z,7.40
2023-01-10T12:20:24.658Z,7.40
2023-01-10T12:22:58.914Z,7.40
2023-01-10T12:25:36.421Z,7.50
2023-01-10T12:28:05.477Z,7.50
2023-01-10T12:30:43.149Z,7.50
2023-01-10T12:33:17.812Z,7.50
2023-01-10T12:36:00.513Z,7.50
2023-01-10T12:38:54.058Z,7.50
2023-01-10T12:41:49.144Z,7.60
2023-01-10T12:44:25.775Z,7.70
2023-01-10T12:47:08.101Z,7.70
2023-01-10T12:49:47.399Z,7.80
2023-01-10T12:52:28.857Z,7.80
2023-01-10T12:54:57.187Z,7.80
2023-01-10T12:57:32.516Z,7.80
2023-01-10T13:00:05.765Z,7.80
2023-01-10T13:02:43.932Z,7.80
2023-01-10T13:05:21.407Z,7.80
2023-01-10T13:07:52.580Z,7.80
2023-01-10T13:10:24.644Z,7.70
2023-01-10T13:13:00.706Z,7.70
2023-01-10T13:15:34.113Z,7.70
2023-01-10T13:18:16.618Z,7.70
2023-01-10T13:20:45.808Z,7.80
2023-01-10T13:23:30.078Z,7.90
2023-01-10T13:26:04.691Z,7.90
2023-01-10T13:28:36.583Z,7.90
2023-01-10T13:31:08.832Z,7.90
2023-01-10T13:33:55.992Z,7.80
2023-01-10T13:36:29.148Z,7.80
2023-01-10T13:39:01.176Z,7.90
2023-01-10T13:42:43.066Z,7.90
2023-01-10T13:45:25.110Z,7.90
2023-01-10T13:48:25.516Z,7.90
2023-01-10T13:51:20.108Z,7.80
2023-01-10T13:54:26.147Z,7.70
2023-01-10T13:56:54.679Z,7.70
2023-01-10T14:00:19.509Z,7.70
2023-01-10T14:02:48.058Z,7.60
2023-01-10T14:05:21.116Z,7.60
2023-01-10T14:07:54.899Z,7.70
2023-01-10T14:10:27.783Z,7.60
2023-01-10T14:12:59.981Z,7.60
2023-01-10T14:15:32.531Z,7.60
2023-01-10T14:18:05.577Z,7.60
2023-01-10T14:20:37.119Z,7.60
2023-01-10T14:23:18.657Z,7.60
2023-01-10T14:25:54.523Z,7.60
2023-01-10T14:28:27.660Z,7.60
2023-01-10T14:31:08.253Z,7.60
2023-01-10T14:33:38.407Z,7.60
2023-01-10T14:36:16.470Z,7.60
2023-01-10T14:38:49.439Z,7.60
2023-01-10T14:41:24.862Z,7.60
2023-01-10T14:44:00.405Z,7.60
2023-01-10T14:46:39.856Z,7.60
2023-01-10T14:49:23.740Z,7.60
2023-01-10T14:51:52.422Z,7.60
2023-01-10T14:54:23.466Z,7.60
2023-01-10T14:56:54.085Z,7.60
2023-01-10T14:59:28.759Z,7.60
2023-01-10T15:02:00.156Z,7.60
2023-01-10T15:04:32.792Z,7.60
2023-01-10T15:07:04.213Z,7.50
2023-01-10T15:09:34.423Z,7.50
2023-01-10T15:12:09.002Z,7.60
2023-01-10T15:14:39.248Z,7.70
2023-01-10T15:17:12.907Z,7.60
2023-01-10T15:19:41.850Z,7.60
2023-01-10T15:22:30.790Z,7.60
2023-01-10T15:25:02.607Z,7.50
2023-01-10T15:27:32.594Z,7.50
2023-01-10T15:30:02.479Z,7.50
2023-01-10T15:32:38.260Z,7.50
2023-01-10T15:35:12.102Z,7.40
2023-01-10T15:37:49.878Z,7.50
2023-01-10T15:40:26.251Z,7.50
2023-01-10T15:43:13.534Z,7.50
2023-01-10T15:46:20.813Z,7.40
2023-01-10T15:49:00.462Z,7.50
2023-01-10T15:51:33.685Z,7.40
2023-01-10T15:54:05.630Z,7.40
2023-01-10T15:56:40.259Z,7.40
2023-01-10T15:59:24.625Z,7.40
2023-01-10T16:01:59.726Z,7.30
2023-01-10T16:04:29.299Z,7.30
2023-01-10T16:07:08.815Z,7.40
2023-01-10T16:09:39.482Z,7.30
2023-01-10T16:12:41.512Z,7.30
2023-01-10T16:15:19.097Z,7.20
2023-01-10T16:17:49.877Z,7.20
2023-01-10T16:20:21.513Z,7.20
2023-01-10T16:22:51.207Z,7.10
2023-01-10T16:25:26.033Z,7.10
2023-01-10T16:27:56.206Z,7.10
2023-01-10T16:30:27.405Z,7.00
2023-01-10T16:32:57.225Z,7.00
2023-01-10T16:35:26.825Z,7.10
2023-01-10T16:37:58.488Z,7.00
2023-01-10T16:40:29.974Z,7.00
2023-01-10T16:43:17.704Z,7.00
2023-01-10T16:45:47.334Z,7.00
2023-01-10T16:48:15.971Z,7.00
2023-01-10T16:50:45.524Z,6.90
2023-01-10T16:53:16.856Z,7.00
2023-01-10T16:55:48.359Z,6.90
2023-01-10T16:58:19.697Z,7.00
2023-01-10T17:00:51.520Z,6.90
2023-01-10T17:03:25.143Z,6.90
2023-01-10T17:05:53.685Z,6.90
2023-01-10T17:08:24.856Z,7.00
2023-01-10T17:11:00.196Z,6.90
2023-01-10T17:13:35.905Z,6.90
2023-01-10T17:16:04.318Z,6.90
2023-01-10T17:18:32.834Z,6.90
2023-01-10T17:21:01.135Z,6.80
2023-01-10T17:23:30.680Z,6.90
2023-01-10T17:26:04.261Z,6.80
2023-01-10T17:28:34.223Z,6.80
2023-01-10T17:31:03.143Z,6.80
2023-01-10T17:33:31.647Z,6.80
2023-01-10T17:36:00.051Z,6.80
2023-01-10T17:38:29.627Z,6.80
2023-01-10T17:41:02.298Z,6.80
2023-01-10T17:43:32.826Z,6.80
2023-01-10T17:46:05.677Z,6.70
2023-01-10T17:48:35.010Z,6.80
2023-01-10T17:51:04.535Z,6.80
2023-01-10T17:53:32.891Z,6.90
2023-01-10T17:56:01.205Z,6.80
2023-01-10T17:58:29.930Z,6.80
2023-01-10T18:00:59.906Z,6.80
2023-01-10T18:03:29.448Z,6.90
2023-01-10T18:06:00.057Z,6.80
2023-01-10T18:08:28.570Z,6.80
2023-01-10T18:11:01.053Z,6.80
2023-01-10T18:13:31.490Z,6.80
2023-01-10T18:16:03.124Z,6.80
2023-01-10T18:18:31.909Z,6.80
2023-01-10T18:21:02.189Z,6.80
2023-01-10T18:23:31.732Z,6.90
2023-01-10T18:26:03.100Z,6.80
2023-01-10T18:28:40.797Z,6.80
2023-01-10T18:31:13.965Z,6.80
2023-01-10T18:33:42.841Z,6.90
2023-01-10T18:36:16.315Z,6.90
2023-01-10T18:38:46.462Z,6.90
2023-01-10T18:41:15.371Z,6.90
2023-01-10T18:43:43.660Z,6.80
2023-01-10T18:46:16.088Z,6.80
2023-01-10T18:48:44.484Z,6.90
2023-01-10T18:51:15.327Z,6.90
2023-01-10T18:53:44.767Z,6.80
2023-01-10T18:56:13.334Z,6.80
2023-01-10T18:58:43.329Z,6.80
2023-01-10T19:01:14.803Z,6.90
2023-01-10T19:03:45.397Z,6.80
2023-01-10T19:06:17.209Z,6.80
2023-01-10T19:08:47.289Z,6.80
2023-01-10T19:11:17.164Z,6.80
2023-01-10T19:13:46.716Z,6.80
2023-01-10T19:16:19.519Z,6.90
2023-01-10T19:18:52.338Z,7.00
2023-01-10T19:21:21.445Z,6.90
2023-01-10T19:23:52.360Z,7.00
2023-01-10T19:26:20.698Z,6.90
2023-01-10T19:28:49.489Z,6.90
2023-01-10T19:31:22.031Z,6.90
2023-01-10T19:33:50.741Z,6.90
2023-01-10T19:36:21.961Z,7.00
2023-01-10T19:38:54.692Z,7.00
2023-01-10T19:41:22.964Z,7.00
2023-01-10T19:43:57.951Z,7.10
2023-01-10T19:46:28.496Z,7.10
2023-01-10T19:48:57.297Z,7.00
2023-01-10T19:51:26.177Z,7.00
2023-01-10T19:53:54.701Z,7.00
2023-01-10T19:56:23.342Z,7.00
2023-01-10T19:58:52.548Z,7.00
2023-01-10T20:01:24.205Z,7.00
2023-01-10T20:03:57.557Z,7.10
2023-01-10T20:06:28.355Z,7.00
2023-01-10T20:08:57.054Z,7.10
2023-01-10T20:11:36.720Z,7.00
2023-01-10T20:14:05.834Z,6.90
2023-01-10T20:16:34.716Z,6.90
2023-01-10T20:19:08.832Z,6.80
2023-01-10T20:21:38.130Z,6.80
2023-01-10T20:24:12.319Z,6.70
2023-01-10T20:26:41.378Z,6.60
2023-01-10T20:29:10.019Z,6.60
2023-01-10T20:31:38.357Z,6.50
2023-01-10T20:34:07.997Z,6.50
2023-01-10T20:36:36.372Z,6.40
2023-01-10T20:39:05.280Z,6.40
2023-01-10T20:41:33.690Z,6.30
2023-01-10T20:44:02.020Z,6.30
2023-01-10T20:46:32.806Z,6.30
2023-01-10T20:49:02.998Z,6.30
2023-01-10T20:51:35.224Z,6.30
2023-01-10T20:54:05.678Z,6.20
2023-01-10T20:56:35.276Z,6.20
2023-01-10T20:59:05.423Z,6.10
2023-01-10T21:01:35.613Z,6.20
2023-01-10T21:04:06.861Z,6.20
2023-01-10T21:06:37.536Z,6.10
2023-01-10T21:09:06.925Z,6.10
2023-01-10T21:11:51.549Z,6.10
2023-01-10T21:14:24.802Z,6.10
2023-01-10T21:16:53.122Z,6.10
2023-01-10T21:19:21.689Z,6.10
2023-01-10T21:21:51.441Z,6.00
2023-01-10T21:24:22.828Z,6.00
2023-01-10T21:26:51.130Z,5.90
2023-01-10T21:29:19.540Z,6.00
2023-01-10T21:31:47.906Z,6.00
2023-01-10T21:34:16.274Z,5.90
2023-01-10T21:36:44.463Z,6.00
2023-01-10T21:39:14.115Z,5.90
2023-01-10T21:41:59.891Z,6.00
2023-01-10T21:44:28.238Z,6.00
2023-01-10T21:46:56.565Z,5.90
2023-01-10T21:49:25.057Z,5.90
2023-01-10T21:51:53.410Z,5.90
2023-01-10T21:54:23.328Z,5.90
2023-01-10T21:56:51.615Z,5.90
2023-01-10T21:59:19.879Z,5.80
2023-01-10T22:01:48.457Z,5.90
2023-01-10T22:04:17.585Z,5.80
2023-01-10T22:06:46.015Z,5.90
2023-01-10T22:09:14.335Z,5.90
2023-01-10T22:11:44.004Z,5.90
2023-01-10T22:14:13.250Z,5.90
2023-01-10T22:16:41.617Z,6.00
2023-01-10T22:19:10.057Z,5.90
2023-01-10T22:21:38.244Z,6.00
2023-01-10T22:24:07.326Z,5.90
2023-01-10T22:26:35.628Z,5.90
2023-01-10T22:29:05.984Z,6.00
2023-01-10T22:31:34.451Z,6.00
2023-01-10T22:34:02.799Z,6.00
2023-01-10T22:36:31.057Z,6.10
2023-01-10T22:38:59.478Z,6.10
2023-01-10T22:41:28.801Z,6.10
2023-01-10T22:43:58.539Z,6.10
2023-01-10T22:46:28.769Z,6.20
2023-01-10T22:48:57.631Z,6.10
2023-01-10T22:51:28.751Z,6.10
2023-01-10T22:53:59.243Z,6.10
2023-01-10T22:56:27.718Z,6.10
2023-01-10T22:58:56.081Z,6.10
2023-01-10T23:01:27.172Z,6.10
2023-01-10T23:03:55.642Z,6.10
2023-01-10T23:06:24.065Z,6.10
2023-01-10T23:08:52.637Z,6.00
2023-01-10T23:11:23.058Z,6.00
2023-01-10T23:13:51.771Z,6.00
2023-01-10T23:16:28.097Z,6.10
2023-01-10T23:18:58.260Z,6.10
2023-01-10T23:21:29.550Z,6.00
2023-01-10T23:23:58.345Z,6.00
2023-01-10T23:26:26.745Z,6.10
2023-01-10T23:28:55.029Z,6.10
2023-01-10T23:31:29.334Z,6.10
2023-01-10T23:33:59.581Z,6.10
2023-01-10T23:36:27.858Z,6.20
2023-01-10T23:38:56.078Z,6.20
2023-01-10T23:41:24.907Z,6.20
2023-01-10T23:43:53.479Z,6.20
2023-01-10T23:46:21.827Z,6.20
2023-01-10T23:48:50.142Z,6.30
2023-01-10T23:51:19.687Z,6.30
2023-01-10T23:53:47.901Z,6.30
2023-01-10T23:56:16.414Z,6.30
2023-01-10T23:58:44.819Z,6.30
